createdAt,value
2023-04-17T00:01:41.105Z,5.80
2023-04-17T00:04:13.283Z,6.05
2023-04-17T00:06:44.650Z,6.90
2023-04-17T00:09:12.991Z,7.40
2023-04-17T00:11:41.192Z,6.63
2023-04-17T00:14:08.859Z,7.72
2023-04-17T00:16:36.892Z,7.22
2023-04-17T00:19:04.808Z,6.57
2023-04-17T00:21:32.949Z,7.47
2023-04-17T00:24:00.730Z,6.95
2023-04-17T00:26:28.745Z,9.18
2023-04-17T00:28:56.608Z,5.93
2023-04-17T00:31:24.630Z,7.22
2023-04-17T00:33:52.432Z,6.65
2023-04-17T00:36:20.588Z,7.18
2023-04-17T00:38:48.408Z,8.05
2023-04-17T00:41:16.606Z,8.30
2023-04-17T00:43:47.285Z,6.05
2023-04-17T00:46:15.652Z,7.82
2023-04-17T00:48:44.528Z,5.35
2023-04-17T00:51:12.897Z,8.80
2023-04-17T00:53:40.893Z,6.55
2023-04-17T00:56:09.504Z,6.10
2023-04-17T00:58:38.077Z,7.20
2023-04-17T01:01:06.855Z,6.35
2023-04-17T01:03:35.324Z,6.75
2023-04-17T01:06:03.861Z,5.68
2023-04-17T01:08:42.869Z,6.05
2023-04-17T01:11:11.725Z,12.57
2023-04-17T01:13:50.634Z,6.80
2023-04-17T01:16:19.377Z,7.07
2023-04-17T01:18:49.395Z,5.80
2023-04-17T01:21:17.959Z,8.55
2023-04-17T01:23:48.657Z,9.25
2023-04-17T01:26:19.213Z,8.05
2023-04-17T01:28:51.845Z,8.85
2023-04-17T01:31:21.531Z,10.35
2023-04-17T01:33:50.641Z,15.93
2023-04-17T01:36:18.781Z,17.92
2023-04-17T01:38:46.491Z,18.75
2023-04-17T01:41:14.613Z,19.33
2023-04-17T01:43:45.481Z,17.23
2023-04-17T01:46:13.918Z,19.92
2023-04-17T01:48:41.861Z,16.63
2023-04-17T01:51:10.078Z,19.38
2023-04-17T01:53:40.656Z,26.25
2023-04-17T01:56:08.832Z,24.20
2023-04-17T01:58:36.664Z,24.90
2023-04-17T02:01:06.168Z,23.60
2023-04-17T02:03:34.139Z,24.25
2023-04-17T02:06:02.312Z,23.15
2023-04-17T02:08:30.131Z,24.13
2023-04-17T02:11:00.108Z,24.77
2023-04-17T02:13:28.293Z,27.25
2023-04-17T02:15:57.142Z,22.45
2023-04-17T02:18:29.248Z,23.00
2023-04-17T02:20:57.276Z,21.83
2023-04-17T02:23:25.197Z,25.92
2023-04-17T02:25:53.128Z,24.52
2023-04-17T02:28:20.885Z,24.75
2023-04-17T02:30:51.030Z,21.15
2023-04-17T02:33:19.396Z,24.38
2023-04-17T02:35:48.152Z,29.13
2023-04-17T02:38:20.332Z,27.08
2023-04-17T02:40:48.401Z,26.60
2023-04-17T02:43:17.235Z,25.48
2023-04-17T02:45:45.512Z,26.77
2023-04-17T02:48:14.106Z,23.48
2023-04-17T02:50:42.086Z,26.58
2023-04-17T02:53:14.911Z,25.55
2023-04-17T02:55:42.986Z,26.23
2023-04-17T02:58:11.439Z,24.52
2023-04-17T03:00:40.129Z,25.35
2023-04-17T03:03:10.904Z,29.42
2023-04-17T03:05:39.151Z,25.52
2023-04-17T03:08:07.265Z,28.10
2023-04-17T03:10:43.599Z,25.45
2023-04-17T03:13:11.357Z,26.63
2023-04-17T03:15:39.418Z,26.98
2023-04-17T03:18:07.250Z,26.77
2023-04-17T03:20:35.273Z,28.67
2023-04-17T03:23:03.253Z,26.50
2023-04-17T03:25:31.311Z,27.15
2023-04-17T03:27:59.089Z,25.08
2023-04-17T03:30:32.189Z,26.98
2023-04-17T03:33:03.954Z,29.67
2023-04-17T03:35:33.343Z,29.83
2023-04-17T03:38:05.093Z,24.23
2023-04-17T03:40:33.851Z,27.38
2023-04-17T03:43:01.994Z,32.38
2023-04-17T03:45:31.536Z,27.88
2023-04-17T03:47:59.613Z,29.10
2023-04-17T03:50:27.700Z,29.42
2023-04-17T03:52:57.440Z,33.08
2023-04-17T03:55:30.007Z,31.00
2023-04-17T03:57:58.516Z,30.70
2023-04-17T04:00:31.735Z,28.52
2023-04-17T04:03:04.852Z,32.95
2023-04-17T04:05:40.289Z,35.08
2023-04-17T04:08:09.816Z,32.83
2023-04-17T04:10:51.501Z,38.63
2023-04-17T04:13:25.870Z,31.98
2023-04-17T04:15:58.394Z,32.25
2023-04-17T04:18:28.890Z,34.27
2023-04-17T04:20:59.113Z,31.88
2023-04-17T04:23:33.713Z,36.80
2023-04-17T04:26:02.274Z,35.45
2023-04-17T04:28:52.389Z,34.88
2023-04-17T04:31:30.598Z,33.35
2023-04-17T04:34:01.338Z,36.50
2023-04-17T04:36:30.347Z,36.70
2023-04-17T04:39:20.975Z,34.72
2023-04-17T04:41:51.357Z,34.97
2023-04-17T04:46:53.161Z,33.72
2023-04-17T04:49:21.369Z,35.28
2023-04-17T04:51:52.090Z,35.58
2023-04-17T04:56:54.991Z,34.95
2023-04-17T04:59:23.318Z,35.38
2023-04-17T05:02:01.326Z,35.25
2023-04-17T05:04:29.471Z,38.83
2023-04-17T05:07:01.431Z,37.80
2023-04-17T05:09:31.612Z,36.50
2023-04-17T05:12:00.167Z,37.63
2023-04-17T05:14:28.406Z,40.40
2023-04-17T05:16:56.777Z,41.03
2023-04-17T05:19:25.848Z,41.78
2023-04-17T05:21:58.713Z,38.67
2023-04-17T05:24:26.611Z,39.42
2023-04-17T05:26:55.233Z,38.33
2023-04-17T05:29:25.269Z,43.13
2023-04-17T05:31:55.135Z,39.10
2023-04-17T05:34:42.946Z,43.40
2023-04-17T05:37:12.032Z,38.95
2023-04-17T05:39:39.774Z,40.30
2023-04-17T05:42:09.505Z,38.53
2023-04-17T05:44:37.653Z,40.88
2023-04-17T05:47:06.205Z,36.78
2023-04-17T05:49:33.965Z,36.72
2023-04-17T05:52:02.185Z,39.95
2023-04-17T05:54:30.410Z,41.33
2023-04-17T05:56:59.660Z,40.33
2023-04-17T05:59:27.572Z,39.03
2023-04-17T06:01:55.823Z,38.88
2023-04-17T06:04:24.057Z,37.85
2023-04-17T06:06:52.886Z,37.92
2023-04-17T06:09:23.461Z,37.47
2023-04-17T06:11:53.671Z,38.50
2023-04-17T06:14:21.461Z,34.67
2023-04-17T06:16:49.664Z,38.08
2023-04-17T06:19:20.873Z,37.65
2023-04-17T06:21:48.917Z,37.90
2023-04-17T06:24:16.934Z,38.88
2023-04-17T06:26:48.601Z,42.88
2023-04-17T06:29:17.753Z,35.17
2023-04-17T06:31:46.623Z,36.15
2023-04-17T06:34:17.544Z,35.97
2023-04-17T06:36:48.376Z,37.35
2023-04-17T06:39:20.338Z,37.70
2023-04-17T06:41:50.315Z,37.88
2023-04-17T06:44:27.136Z,34.65
2023-04-17T06:46:56.054Z,37.13
2023-04-17T06:49:24.985Z,32.95
2023-04-17T06:51:53.014Z,38.63
2023-04-17T06:54:20.828Z,33.42
2023-04-17T06:56:48.837Z,38.25
2023-04-17T06:59:17.613Z,36.63
2023-04-17T07:01:46.221Z,40.40
2023-04-17T07:04:14.142Z,36.03
2023-04-17T07:06:42.177Z,35.58
2023-04-17T07:09:09.993Z,36.65
2023-04-17T07:11:37.989Z,36.75
2023-04-17T07:14:06.304Z,36.88
2023-04-17T07:16:34.365Z,36.65
2023-04-17T07:19:02.076Z,34.65
2023-04-17T07:21:30.070Z,35.08
2023-04-17T07:23:57.781Z,37.72
2023-04-17T07:26:25.940Z,34.42
2023-04-17T07:28:53.738Z,32.13
2023-04-17T07:31:22.279Z,33.53
2023-04-17T07:33:50.637Z,29.90
2023-04-17T07:36:18.609Z,35.70
2023-04-17T07:38:46.368Z,25.40
2023-04-17T07:41:14.489Z,27.63
2023-04-17T07:43:42.332Z,26.20
2023-04-17T07:46:10.445Z,27.42
2023-04-17T07:48:39.310Z,26.08
2023-04-17T07:51:07.847Z,28.42
2023-04-17T07:53:37.358Z,20.55
2023-04-17T07:56:06.530Z,22.05
2023-04-17T07:58:35.869Z,18.75
2023-04-17T08:01:07.273Z,13.95
2023-04-17T08:03:35.136Z,16.77
2023-04-17T08:06:03.314Z,16.35
2023-04-17T08:08:31.030Z,14.45
2023-04-17T08:10:59.016Z,14.50
2023-04-17T08:13:26.918Z,16.10
2023-04-17T08:15:56.986Z,14.00
2023-04-17T08:18:24.795Z,11.32
2023-04-17T08:20:53.212Z,12.18
2023-04-17T08:23:21.134Z,10.00
2023-04-17T08:25:49.313Z,12.63
2023-04-17T08:28:19.231Z,11.45
2023-04-17T08:30:47.334Z,13.75
2023-04-17T08:33:17.007Z,13.80
2023-04-17T08:35:46.046Z,11.50
2023-04-17T08:38:14.909Z,10.95
2023-04-17T08:40:46.596Z,9.45
2023-04-17T08:45:50.266Z,10.25
2023-04-17T08:48:18.140Z,7.63
2023-04-17T08:50:48.994Z,10.13
2023-04-17T08:53:20.612Z,11.07
2023-04-17T08:55:48.992Z,10.20
2023-04-17T08:58:19.003Z,9.85
2023-04-17T09:00:47.078Z,12.73
2023-04-17T09:03:15.512Z,13.40
2023-04-17T09:05:46.270Z,11.25
2023-04-17T09:08:20.801Z,8.87
2023-04-17T09:10:51.436Z,10.32
2023-04-17T09:13:21.861Z,12.23
2023-04-17T09:16:06.154Z,10.35
2023-04-17T09:18:37.459Z,10.65
2023-04-17T09:23:51.807Z,12.52
2023-04-17T09:26:23.966Z,13.30
2023-04-17T09:29:04.050Z,13.07
2023-04-17T09:31:34.778Z,10.07
2023-04-17T09:34:04.883Z,12.30
2023-04-17T09:36:34.720Z,11.80
2023-04-17T09:39:18.030Z,13.20
2023-04-17T09:41:46.736Z,11.52
2023-04-17T09:44:26.359Z,10.70
2023-04-17T09:46:54.920Z,11.35
2023-04-17T09:49:34.520Z,11.98
2023-04-17T09:52:03.717Z,9.38
2023-04-17T09:54:31.774Z,9.25
2023-04-17T09:57:03.780Z,9.30
2023-04-17T09:59:32.077Z,13.07
2023-04-17T10:02:01.690Z,10.30
2023-04-17T10:04:30.008Z,8.55
2023-04-17T10:07:01.116Z,7.38
2023-04-17T10:09:31.233Z,8.82
2023-04-17T10:12:02.072Z,8.25
2023-04-17T10:14:40.283Z,8.27
2023-04-17T10:17:34.466Z,8.35
2023-04-17T10:20:20.262Z,10.15
2023-04-17T10:22:54.290Z,7.68
2023-04-17T10:25:25.765Z,6.65
2023-04-17T10:27:55.216Z,6.53
2023-04-17T10:30:23.929Z,7.53
2023-04-17T10:33:20.004Z,7.95
2023-04-17T10:35:48.560Z,9.10
2023-04-17T10:40:39.906Z,6.95
2023-04-17T10:43:28.511Z,8.65
2023-04-17T10:46:05.984Z,6.75
2023-04-17T10:48:38.930Z,9.07
2023-04-17T10:51:27.107Z,9.57
2023-04-17T10:54:10.345Z,7.15
2023-04-17T10:56:48.765Z,7.18
2023-04-17T10:59:23.548Z,9.32
2023-04-17T11:01:53.051Z,9.30
2023-04-17T11:04:24.103Z,12.32
2023-04-17T11:06:55.941Z,9.45
2023-04-17T11:09:26.793Z,9.57
2023-04-17T11:14:47.904Z,8.68
2023-04-17T11:17:16.039Z,7.22
2023-04-17T11:19:45.848Z,10.27
2023-04-17T11:22:19.507Z,6.90
2023-04-17T11:24:50.625Z,8.40
2023-04-17T11:27:18.611Z,8.30
2023-04-17T11:29:48.975Z,9.07
2023-04-17T11:32:16.836Z,7.07
2023-04-17T11:34:45.690Z,7.68
2023-04-17T11:37:15.106Z,8.75
2023-04-17T11:39:44.300Z,11.23
2023-04-17T11:42:14.250Z,6.75
2023-04-17T11:44:44.569Z,7.85
2023-04-17T11:47:23.461Z,10.93
2023-04-17T11:49:51.856Z,8.25
2023-04-17T11:52:20.007Z,9.23
2023-04-17T11:54:48.171Z,9.45
2023-04-17T11:57:16.379Z,13.30
2023-04-17T11:59:45.601Z,14.02
2023-04-17T12:02:15.211Z,11.57
2023-04-17T12:04:46.408Z,11.48
2023-04-17T12:07:23.965Z,10.48
2023-04-17T12:09:59.627Z,11.82
2023-04-17T12:12:27.541Z,11.82
2023-04-17T12:14:59.160Z,10.30
2023-04-17T12:17:27.381Z,11.23
2023-04-17T12:19:56.034Z,9.80
2023-04-17T12:22:24.134Z,10.32
2023-04-17T12:24:52.332Z,9.20
2023-04-17T12:27:20.524Z,12.13
2023-04-17T12:29:48.709Z,12.27
2023-04-17T12:32:16.700Z,10.35
2023-04-17T12:34:44.906Z,9.73
2023-04-17T12:37:12.803Z,8.98
2023-04-17T12:39:41.270Z,9.65
2023-04-17T12:42:09.218Z,9.40
2023-04-17T12:44:37.382Z,11.43
2023-04-17T12:47:05.661Z,8.57
2023-04-17T12:49:33.934Z,8.32
2023-04-17T12:52:03.679Z,9.43
2023-04-17T12:54:33.073Z,9.38
2023-04-17T12:57:01.726Z,11.07
2023-04-17T12:59:32.588Z,8.98
2023-04-17T13:02:01.163Z,7.07
2023-04-17T13:04:29.879Z,11.02
2023-04-17T13:06:58.407Z,10.00
2023-04-17T13:09:26.686Z,9.20
2023-04-17T13:11:54.671Z,11.13
2023-04-17T13:14:23.022Z,10.60
2023-04-17T13:16:51.273Z,10.93
2023-04-17T13:19:20.042Z,9.15
2023-04-17T13:21:48.383Z,9.90
2023-04-17T13:24:16.903Z,10.80
2023-04-17T13:26:44.975Z,9.32
2023-04-17T13:29:13.920Z,10.70
2023-04-17T13:31:42.905Z,9.00
2023-04-17T13:34:11.727Z,8.02
2023-04-17T13:36:39.645Z,11.35
2023-04-17T13:39:10.110Z,9.02
2023-04-17T13:41:38.653Z,9.50
2023-04-17T13:44:07.000Z,8.27
2023-04-17T13:46:35.577Z,11.07
2023-04-17T13:49:03.868Z,9.50
2023-04-17T13:51:34.263Z,6.85
2023-04-17T13:54:04.551Z,7.40
2023-04-17T13:56:32.566Z,8.20
2023-04-17T13:59:00.904Z,7.85
2023-04-17T14:01:29.043Z,7.15
2023-04-17T14:04:02.807Z,9.25
2023-04-17T14:06:33.624Z,7.72
2023-04-17T14:09:01.863Z,6.25
2023-04-17T14:11:29.886Z,8.70
2023-04-17T14:14:00.369Z,7.65
2023-04-17T14:16:28.540Z,9.55
2023-04-17T14:18:59.325Z,7.85
2023-04-17T14:21:29.578Z,8.00
2023-04-17T14:23:59.905Z,11.10
2023-04-17T14:26:27.874Z,8.10
2023-04-17T14:28:56.503Z,7.82
2023-04-17T14:31:24.493Z,8.35
2023-04-17T14:33:52.692Z,9.13
2023-04-17T14:36:20.650Z,8.50
2023-04-17T14:38:51.284Z,8.82
2023-04-17T14:41:21.806Z,7.88
2023-04-17T14:43:50.598Z,7.32
2023-04-17T14:46:18.648Z,8.82
2023-04-17T14:48:55.438Z,8.25
2023-04-17T14:51:24.518Z,8.73
2023-04-17T14:53:53.348Z,9.70
2023-04-17T14:56:24.081Z,10.63
2023-04-17T14:58:52.530Z,10.50
2023-04-17T15:01:20.544Z,9.85
2023-04-17T15:03:51.554Z,9.73
2023-04-17T15:06:20.118Z,9.98
2023-04-17T15:08:48.656Z,9.57
2023-04-17T15:11:16.788Z,10.80
2023-04-17T15:13:47.215Z,10.52
2023-04-17T15:16:15.402Z,11.32
2023-04-17T15:18:43.792Z,10.68
2023-04-17T15:21:16.472Z,9.93
2023-04-17T15:23:45.066Z,9.80
2023-04-17T15:26:13.285Z,9.15
2023-04-17T15:28:41.504Z,11.85
2023-04-17T15:31:09.606Z,12.90
2023-04-17T15:33:41.396Z,14.45
2023-04-17T15:36:09.406Z,11.65
2023-04-17T15:38:37.694Z,12.13
2023-04-17T15:41:05.873Z,11.98
2023-04-17T15:43:34.038Z,11.45
2023-04-17T15:46:05.818Z,12.27
2023-04-17T15:48:35.362Z,11.15
2023-04-17T15:51:03.988Z,12.25
2023-04-17T15:53:32.607Z,13.15
2023-04-17T15:56:03.115Z,15.02
2023-04-17T15:58:33.548Z,13.05
2023-04-17T16:01:01.634Z,13.25
2023-04-17T16:03:29.919Z,13.13
2023-04-17T16:05:57.894Z,13.38
2023-04-17T16:08:26.986Z,11.55
2023-04-17T16:10:57.106Z,12.95
2023-04-17T16:13:25.283Z,12.48
2023-04-17T16:15:57.714Z,11.82
2023-04-17T16:18:27.974Z,12.90
2023-04-17T16:20:55.867Z,12.20
2023-04-17T16:23:24.061Z,10.55
2023-04-17T16:25:52.037Z,12.82
2023-04-17T16:28:20.168Z,12.15
2023-04-17T16:30:48.400Z,10.85
2023-04-17T16:33:18.766Z,13.55
2023-04-17T16:35:46.711Z,14.55
2023-04-17T16:38:14.888Z,16.70
2023-04-17T16:40:42.761Z,12.30
2023-04-17T16:43:11.169Z,11.50
2023-04-17T16:45:42.180Z,14.50
2023-04-17T16:48:11.445Z,12.52
2023-04-17T16:50:39.537Z,14.68
2023-04-17T16:53:10.793Z,13.07
2023-04-17T16:55:38.675Z,13.93
2023-04-17T16:58:07.031Z,13.85
2023-04-17T17:00:37.034Z,19.60
2023-04-17T17:03:05.483Z,21.08
2023-04-17T17:05:35.616Z,13.25
2023-04-17T17:08:03.798Z,14.65
2023-04-17T17:10:31.822Z,12.70
2023-04-17T17:13:02.404Z,11.20
2023-04-17T17:15:30.472Z,14.55
2023-04-17T17:17:58.718Z,12.20
2023-04-17T17:20:26.693Z,16.10
2023-04-17T17:22:58.006Z,13.10
2023-04-17T17:25:26.124Z,15.38
2023-04-17T17:27:54.338Z,11.65
2023-04-17T17:30:22.328Z,15.27
2023-04-17T17:32:50.746Z,14.13
2023-04-17T17:35:18.937Z,12.65
2023-04-17T17:37:47.114Z,17.45
2023-04-17T17:40:15.174Z,22.67
2023-04-17T17:42:45.158Z,21.20
2023-04-17T17:45:15.105Z,17.42
2023-04-17T17:47:43.318Z,15.50
2023-04-17T17:50:13.457Z,19.00
2023-04-17T17:52:41.675Z,18.55
2023-04-17T17:55:14.940Z,17.83
2023-04-17T17:57:49.294Z,18.70
2023-04-17T18:00:17.858Z,15.30
2023-04-17T18:02:46.383Z,17.70
2023-04-17T18:05:14.954Z,13.55
2023-04-17T18:07:43.314Z,14.02
2023-04-17T18:10:11.411Z,16.00
2023-04-17T18:12:39.811Z,17.70
2023-04-17T18:15:08.336Z,15.95
2023-04-17T18:17:36.509Z,15.88
2023-04-17T18:20:04.592Z,17.40
2023-04-17T18:22:33.083Z,16.75
2023-04-17T18:25:01.718Z,15.98
2023-04-17T18:27:30.946Z,15.93
2023-04-17T18:29:59.410Z,15.23
2023-04-17T18:32:27.967Z,16.08
2023-04-17T18:34:56.436Z,17.13
2023-04-17T18:37:27.043Z,16.08
2023-04-17T18:39:55.006Z,17.17
2023-04-17T18:42:23.273Z,19.08
2023-04-17T18:44:51.137Z,18.10
2023-04-17T18:47:19.378Z,21.42
2023-04-17T18:49:47.252Z,18.80
2023-04-17T18:52:15.453Z,19.48
2023-04-17T18:54:45.492Z,20.45
2023-04-17T18:59:30.998Z,19.38
2023-04-17T19:01:59.151Z,20.30
2023-04-17T19:04:27.400Z,24.00
2023-04-17T19:06:55.739Z,29.83
2023-04-17T19:09:23.999Z,20.20
2023-04-17T19:11:52.193Z,22.75
2023-04-17T19:14:19.901Z,21.77
2023-04-17T19:16:47.899Z,23.05
2023-04-17T19:19:15.811Z,22.42
2023-04-17T19:21:43.741Z,21.48
2023-04-17T19:24:14.020Z,27.70
2023-04-17T19:26:41.824Z,29.13
2023-04-17T19:29:09.872Z,36.78
2023-04-17T19:31:38.072Z,29.52
2023-04-17T19:34:07.070Z,24.40
2023-04-17T19:36:35.956Z,28.92
2023-04-17T19:39:04.957Z,20.67
2023-04-17T19:41:32.692Z,27.25
2023-04-17T19:44:00.755Z,23.48
2023-04-17T19:46:29.684Z,29.42
2023-04-17T19:48:57.939Z,32.95
2023-04-17T19:51:26.348Z,29.13
2023-04-17T19:53:54.440Z,45.92
2023-04-17T19:56:24.490Z,35.78
2023-04-17T19:58:52.526Z,27.55
2023-04-17T20:01:20.265Z,21.75
2023-04-17T20:03:48.413Z,22.05
2023-04-17T20:06:16.234Z,24.88
2023-04-17T20:08:44.311Z,24.10
2023-04-17T20:11:12.328Z,26.23
2023-04-17T20:13:40.593Z,23.60
2023-04-17T20:16:08.500Z,22.05
2023-04-17T20:18:37.900Z,25.00
2023-04-17T20:21:06.413Z,25.27
2023-04-17T20:23:34.539Z,24.83
2023-04-17T20:26:03.405Z,21.73
2023-04-17T20:28:31.533Z,26.42
2023-04-17T20:30:59.380Z,25.92
2023-04-17T20:33:27.436Z,24.73
2023-04-17T20:35:55.269Z,30.55
2023-04-17T20:38:23.554Z,25.80
2023-04-17T20:40:51.834Z,31.08
2023-04-17T20:43:19.864Z,27.75
2023-04-17T20:45:49.337Z,27.30
2023-04-17T20:48:18.963Z,27.50
2023-04-17T20:50:46.747Z,25.13
2023-04-17T20:53:14.772Z,27.40
2023-04-17T20:55:42.578Z,34.45
2023-04-17T20:58:10.653Z,31.13
2023-04-17T21:00:44.421Z,30.67
2023-04-17T21:03:15.723Z,26.83
2023-04-17T21:05:44.809Z,26.67
2023-04-17T21:08:13.050Z,26.13
2023-04-17T21:10:41.412Z,28.65
2023-04-17T21:13:09.524Z,29.42
2023-04-17T21:15:37.405Z,33.05
2023-04-17T21:18:05.636Z,30.63
2023-04-17T21:20:33.997Z,28.17
2023-04-17T21:23:02.008Z,31.42
2023-04-17T21:25:30.150Z,26.48
2023-04-17T21:27:58.313Z,25.80
2023-04-17T21:30:27.353Z,34.85
2023-04-17T21:32:56.096Z,29.83
2023-04-17T21:35:23.890Z,29.70
2023-04-17T21:37:51.981Z,33.83
2023-04-17T21:40:19.798Z,34.35
2023-04-17T21:42:47.796Z,32.05
2023-04-17T21:45:16.311Z,32.00
2023-04-17T21:47:44.347Z,30.75
2023-04-17T21:50:12.478Z,29.33
2023-04-17T21:52:40.550Z,28.55
2023-04-17T21:55:08.652Z,33.17
2023-04-17T21:57:36.706Z,26.42
2023-04-17T22:00:05.404Z,30.08
2023-04-17T22:02:34.950Z,30.17
2023-04-17T22:05:02.702Z,30.77
2023-04-17T22:07:34.106Z,27.30
2023-04-17T22:10:06.581Z,30.83
2023-04-17T22:12:34.661Z,33.08
2023-04-17T22:15:04.526Z,32.97
2023-04-17T22:17:32.652Z,31.38
2023-04-17T22:20:00.418Z,29.30
2023-04-17T22:22:28.456Z,31.48
2023-04-17T22:24:56.213Z,31.55
2023-04-17T22:27:24.321Z,29.55
2023-04-17T22:29:52.049Z,33.67
2023-04-17T22:32:22.583Z,29.73
2023-04-17T22:34:50.404Z,31.05
2023-04-17T22:37:18.756Z,30.98
2023-04-17T22:39:49.186Z,31.70
2023-04-17T22:42:17.244Z,30.93
2023-04-17T22:44:44.968Z,30.00
2023-04-17T22:47:12.976Z,29.58
2023-04-17T22:49:40.719Z,29.70
2023-04-17T22:52:09.326Z,26.13
2023-04-17T22:54:37.520Z,26.58
2023-04-17T22:57:10.656Z,28.00
2023-04-17T22:59:38.355Z,27.25
2023-04-17T23:02:06.378Z,27.45
2023-04-17T23:04:34.185Z,24.48
2023-04-17T23:07:02.448Z,25.80
2023-04-17T23:09:30.271Z,27.65
2023-04-17T23:11:58.337Z,24.80
2023-04-17T23:14:26.362Z,23.00
2023-04-17T23:16:54.422Z,26.73
2023-04-17T23:19:22.540Z,23.83
2023-04-17T23:21:50.626Z,25.33
2023-04-17T23:24:18.371Z,28.38
2023-04-17T23:26:48.867Z,27.20
2023-04-17T23:29:17.007Z,28.65
2023-04-17T23:31:45.670Z,25.85
2023-04-17T23:34:16.020Z,29.67
2023-04-17T23:36:44.169Z,28.02
2023-04-17T23:39:11.882Z,26.67
2023-04-17T23:41:42.846Z,28.55
2023-04-17T23:44:10.684Z,26.92
2023-04-17T23:46:38.839Z,25.35
2023-04-17T23:49:07.159Z,27.23
2023-04-17T23:51:35.208Z,25.52
2023-04-17T23:54:03.089Z,27.75
2023-04-17T23:56:31.391Z,27.63
2023-04-17T23:58:59.102Z,26.33
